createdAt,value
2018-07-15T00:00:50.884Z,0.00
2018-07-15T00:01:50.876Z,0.00
2018-07-15T00:02:50.875Z,0.00
2018-07-15T00:03:50.879Z,0.00
2018-07-15T00:04:50.877Z,0.00
2018-07-15T00:05:50.872Z,0.00
2018-07-15T00:06:50.869Z,0.00
2018-07-15T00:07:50.871Z,0.00
2018-07-15T00:08:50.866Z,0.00
2018-07-15T00:09:50.872Z,0.00
2018-07-15T00:10:50.871Z,0.00
2018-07-15T00:11:50.870Z,0.00
2018-07-15T00:12:50.866Z,0.00
2018-07-15T00:13:50.862Z,0.00
2018-07-15T00:14:50.859Z,0.00
2018-07-15T00:15:50.858Z,0.00
2018-07-15T00:16:50.856Z,0.00
2018-07-15T00:17:50.859Z,0.00
2018-07-15T00:18:50.858Z,0.00
2018-07-15T00:19:50.852Z,0.00
2018-07-15T00:20:50.850Z,0.00
2018-07-15T00:21:50.853Z,0.00
2018-07-15T00:22:50.851Z,0.00
2018-07-15T00:23:50.852Z,0.00
2018-07-15T00:24:50.848Z,0.00
2018-07-15T00:25:50.842Z,0.00
2018-07-15T00:26:50.842Z,0.00
2018-07-15T00:27:50.841Z,0.00
2018-07-15T00:28:50.837Z,0.00
2018-07-15T00:29:50.841Z,0.00
2018-07-15T00:30:50.840Z,0.00
2018-07-15T00:31:50.842Z,0.00
2018-07-15T00:32:50.837Z,0.00
2018-07-15T00:33:50.830Z,0.00
2018-07-15T00:34:50.830Z,0.00
2018-07-15T00:35:50.832Z,0.00
2018-07-15T00:36:50.831Z,0.00
2018-07-15T00:37:50.828Z,0.00
2018-07-15T00:38:50.822Z,0.00
2018-07-15T00:39:50.822Z,0.00
2018-07-15T00:40:50.820Z,0.00
2018-07-15T00:41:50.822Z,0.00
2018-07-15T00:42:50.821Z,0.00
2018-07-15T00:43:50.820Z,0.00
2018-07-15T00:44:50.817Z,0.00
2018-07-15T00:45:50.810Z,0.00
2018-07-15T00:46:50.809Z,0.00
2018-07-15T00:47:50.807Z,0.00
2018-07-15T00:48:50.806Z,0.00
2018-07-15T00:49:50.808Z,0.00
2018-07-15T00:50:50.806Z,0.00
2018-07-15T00:51:50.801Z,0.00
2018-07-15T00:52:50.798Z,0.00
2018-07-15T00:53:50.802Z,0.00
2018-07-15T00:54:50.806Z,0.00
2018-07-15T00:55:50.799Z,0.00
2018-07-15T00:56:50.795Z,0.00
2018-07-15T00:57:50.793Z,0.00
2018-07-15T00:58:50.788Z,0.00
2018-07-15T00:59:50.787Z,0.00
2018-07-15T01:00:50.785Z,0.00
2018-07-15T01:01:50.793Z,0.00
2018-07-15T01:02:50.787Z,0.00
2018-07-15T01:03:50.784Z,0.00
2018-07-15T01:04:50.786Z,0.00
2018-07-15T01:05:50.777Z,0.00
2018-07-15T01:06:50.779Z,0.00
2018-07-15T01:07:50.779Z,0.00
2018-07-15T01:08:50.775Z,0.00
2018-07-15T01:09:50.769Z,0.00
2018-07-15T01:10:50.767Z,0.00
2018-07-15T01:11:50.766Z,0.00
2018-07-15T01:12:50.764Z,0.00
2018-07-15T01:13:50.765Z,0.00
2018-07-15T01:14:50.763Z,0.00
2018-07-15T01:15:50.762Z,0.00
2018-07-15T01:16:50.760Z,0.00
2018-07-15T01:17:50.753Z,0.00
2018-07-15T01:18:50.758Z,0.00
2018-07-15T01:19:50.752Z,0.00
2018-07-15T01:20:50.749Z,0.00
2018-07-15T01:21:50.752Z,0.00
2018-07-15T01:22:50.750Z,0.00
2018-07-15T01:23:50.747Z,0.00
2018-07-15T01:24:50.745Z,0.00
2018-07-15T01:25:50.744Z,0.00
2018-07-15T01:26:50.742Z,0.00
2018-07-15T01:27:50.741Z,0.00
2018-07-15T01:28:50.738Z,0.00
2018-07-15T01:29:50.732Z,0.00
2018-07-15T01:30:50.729Z,0.00
2018-07-15T01:31:50.728Z,0.00
2018-07-15T01:32:50.755Z,0.00
2018-07-15T01:33:50.728Z,0.00
2018-07-15T01:34:50.727Z,0.00
2018-07-15T01:35:50.726Z,0.00
2018-07-15T01:36:50.722Z,0.00
2018-07-15T01:37:50.717Z,0.00
2018-07-15T01:38:50.714Z,0.00
2018-07-15T01:39:50.717Z,0.00
2018-07-15T01:40:50.713Z,0.00
2018-07-15T01:41:50.708Z,0.00
2018-07-15T01:42:50.705Z,0.00
2018-07-15T01:43:50.705Z,0.00
2018-07-15T01:44:50.702Z,0.00
2018-07-15T01:45:50.704Z,0.00
2018-07-15T01:46:50.703Z,0.00
2018-07-15T01:47:50.700Z,0.00
2018-07-15T01:48:50.697Z,0.00
2018-07-15T01:49:50.691Z,0.00
2018-07-15T01:50:50.690Z,0.00
2018-07-15T01:51:50.688Z,0.00
2018-07-15T01:52:50.684Z,0.00
2018-07-15T01:53:50.686Z,0.00
2018-07-15T01:54:50.684Z,0.00
2018-07-15T01:55:50.678Z,0.00
2018-07-15T01:56:50.679Z,0.00
2018-07-15T01:57:50.681Z,0.00
2018-07-15T01:58:50.676Z,0.00
2018-07-15T01:59:50.675Z,0.00
2018-07-15T02:00:50.673Z,0.00
2018-07-15T02:01:50.665Z,0.00
2018-07-15T02:02:50.662Z,0.00
2018-07-15T02:03:50.660Z,0.00
2018-07-15T02:04:50.709Z,0.00
2018-07-15T02:05:50.661Z,0.00
2018-07-15T02:06:50.659Z,0.00
2018-07-15T02:07:50.661Z,0.00
2018-07-15T02:08:50.652Z,0.00
2018-07-15T02:09:50.647Z,0.00
2018-07-15T02:10:50.646Z,0.00
2018-07-15T02:11:50.648Z,0.00
2018-07-15T02:12:50.644Z,0.00
2018-07-15T02:13:50.641Z,0.00
2018-07-15T02:14:50.635Z,0.00
2018-07-15T02:15:50.637Z,0.00
2018-07-15T02:16:50.630Z,0.00
2018-07-15T02:17:50.634Z,0.00
2018-07-15T02:18:50.630Z,0.00
2018-07-15T02:19:50.629Z,0.00
2018-07-15T02:20:50.628Z,0.00
2018-07-15T02:21:50.618Z,0.00
2018-07-15T02:22:50.619Z,0.00
2018-07-15T02:23:50.614Z,0.00
2018-07-15T02:24:50.613Z,0.00
2018-07-15T02:25:50.614Z,0.00
2018-07-15T02:26:50.610Z,0.00
2018-07-15T02:27:50.605Z,0.00
2018-07-15T02:28:50.604Z,0.00
2018-07-15T02:29:50.603Z,0.00
2018-07-15T02:30:50.605Z,0.00
2018-07-15T02:31:50.609Z,0.00
2018-07-15T02:32:50.597Z,0.00
2018-07-15T02:33:50.590Z,0.00
2018-07-15T02:34:50.590Z,0.00
2018-07-15T02:35:50.590Z,0.00
2018-07-15T02:36:50.637Z,0.00
2018-07-15T02:37:50.585Z,0.00
2018-07-15T02:38:50.582Z,0.00
2018-07-15T02:39:50.581Z,0.00
2018-07-15T02:40:50.578Z,0.00
2018-07-15T02:41:50.571Z,0.00
2018-07-15T02:42:50.571Z,0.00
2018-07-15T02:43:50.572Z,0.00
2018-07-15T02:44:50.571Z,0.00
2018-07-15T02:45:50.564Z,0.00
2018-07-15T02:46:50.584Z,0.00
2018-07-15T02:47:50.563Z,0.00
2018-07-15T02:48:50.553Z,0.00
2018-07-15T02:49:50.553Z,0.00
2018-07-15T02:50:50.553Z,0.00
2018-07-15T02:51:50.549Z,0.00
2018-07-15T02:52:50.551Z,0.00
2018-07-15T02:53:50.540Z,0.00
2018-07-15T02:54:50.537Z,0.00
2018-07-15T02:55:50.535Z,0.00
2018-07-15T02:56:50.540Z,0.00
2018-07-15T02:57:50.533Z,0.00
2018-07-15T02:58:50.532Z,0.00
2018-07-15T02:59:50.525Z,0.00
2018-07-15T03:00:50.526Z,0.00
2018-07-15T03:01:50.525Z,0.00
2018-07-15T03:02:50.522Z,0.00
2018-07-15T03:03:50.521Z,0.00
2018-07-15T03:04:50.517Z,0.00
2018-07-15T03:05:50.510Z,0.00
2018-07-15T03:06:50.507Z,0.00
2018-07-15T03:07:50.504Z,0.00
2018-07-15T03:08:50.502Z,0.00
2018-07-15T03:09:50.502Z,0.00
2018-07-15T03:10:50.500Z,0.00
2018-07-15T03:11:50.500Z,0.00
2018-07-15T03:12:50.497Z,0.00
2018-07-15T03:13:50.489Z,0.00
2018-07-15T03:14:50.491Z,0.00
2018-07-15T03:15:50.487Z,0.00
2018-07-15T03:16:50.486Z,0.00
2018-07-15T03:17:50.478Z,0.00
2018-07-15T03:18:50.476Z,0.00
2018-07-15T03:19:50.489Z,0.00
2018-07-15T03:20:50.469Z,0.00
2018-07-15T03:21:50.471Z,0.00
2018-07-15T03:22:50.469Z,5.63
2018-07-15T03:23:50.468Z,5.63
2018-07-15T03:24:50.464Z,5.63
2018-07-15T03:25:50.456Z,5.63
2018-07-15T03:26:50.457Z,5.63
2018-07-15T03:27:50.452Z,5.63
2018-07-15T03:28:50.448Z,5.63
2018-07-15T03:29:50.450Z,5.63
2018-07-15T03:30:50.449Z,5.63
2018-07-15T03:31:50.442Z,11.25
2018-07-15T03:32:50.438Z,11.25
2018-07-15T03:33:50.441Z,11.25
2018-07-15T03:34:50.438Z,11.25
2018-07-15T03:35:50.435Z,11.25
2018-07-15T03:36:50.431Z,16.88
2018-07-15T03:37:50.425Z,16.88
2018-07-15T03:38:50.423Z,16.88
2018-07-15T03:39:50.428Z,16.88
2018-07-15T03:40:50.420Z,16.88
2018-07-15T03:41:50.415Z,22.50
2018-07-15T03:42:50.412Z,22.50
2018-07-15T03:43:50.409Z,22.50
2018-07-15T03:44:50.405Z,22.50
2018-07-15T03:45:50.409Z,28.13
2018-07-15T03:46:50.405Z,28.13
2018-07-15T03:47:50.400Z,28.13
2018-07-15T03:48:50.397Z,28.13
2018-07-15T03:49:50.397Z,33.75
2018-07-15T03:50:50.395Z,33.75
2018-07-15T03:51:50.391Z,33.75
2018-07-15T03:52:50.388Z,33.75
2018-07-15T03:53:50.381Z,39.38
2018-07-15T03:54:50.378Z,39.38
2018-07-15T03:55:50.375Z,39.38
2018-07-15T03:56:50.372Z,45.00
2018-07-15T03:57:50.374Z,45.00
2018-07-15T03:58:50.377Z,45.00
2018-07-15T03:59:50.370Z,50.63
2018-07-15T04:00:50.532Z,50.63
2018-07-15T04:01:50.359Z,50.63
2018-07-15T04:02:50.356Z,56.25
2018-07-15T04:03:50.358Z,56.25
2018-07-15T04:04:50.356Z,56.25
2018-07-15T04:05:50.349Z,61.88
2018-07-15T04:06:50.346Z,61.88
2018-07-15T04:07:50.344Z,61.88
2018-07-15T04:08:50.393Z,67.50
2018-07-15T04:09:50.344Z,67.50
2018-07-15T04:10:50.338Z,67.50
2018-07-15T04:11:50.336Z,73.13
2018-07-15T04:12:50.333Z,73.13
2018-07-15T04:13:50.326Z,78.75
2018-07-15T04:14:50.328Z,78.75
2018-07-15T04:15:50.322Z,78.75
2018-07-15T04:16:50.318Z,84.38
2018-07-15T04:17:50.320Z,84.38
2018-07-15T04:18:50.320Z,90.00
2018-07-15T04:19:50.310Z,90.00
2018-07-15T04:20:50.308Z,90.00
2018-07-15T04:21:50.310Z,95.63
2018-07-15T04:22:50.308Z,95.63
2018-07-15T04:23:50.304Z,95.63
2018-07-15T04:24:50.301Z,101.25
2018-07-15T04:25:50.296Z,101.25
2018-07-15T04:26:50.292Z,106.88
2018-07-15T04:27:50.290Z,106.88
2018-07-15T04:28:50.287Z,106.88
2018-07-15T04:29:50.289Z,112.50
2018-07-15T04:30:50.287Z,112.50
2018-07-15T04:31:50.285Z,118.13
2018-07-15T04:32:50.282Z,118.13
2018-07-15T04:33:50.276Z,123.75
2018-07-15T04:34:50.273Z,123.75
2018-07-15T04:35:50.275Z,129.38
2018-07-15T04:36:50.274Z,135.00
2018-07-15T04:37:50.274Z,135.00
2018-07-15T04:38:50.261Z,135.00
2018-07-15T04:39:50.260Z,135.00
2018-07-15T04:40:50.256Z,135.00
2018-07-15T04:41:50.258Z,135.00
2018-07-15T04:42:50.256Z,140.63
2018-07-15T04:43:50.279Z,140.63
2018-07-15T04:44:50.254Z,146.25
2018-07-15T04:45:50.246Z,146.25
2018-07-15T04:46:50.244Z,146.25
2018-07-15T04:47:50.241Z,151.88
2018-07-15T04:48:50.240Z,157.50
2018-07-15T04:49:50.241Z,157.50
2018-07-15T04:50:50.247Z,163.13
2018-07-15T04:51:50.232Z,163.13
2018-07-15T04:52:50.229Z,168.75
2018-07-15T04:53:50.232Z,168.75
2018-07-15T04:54:50.229Z,185.63
2018-07-15T04:55:50.229Z,230.63
2018-07-15T04:56:50.225Z,343.13
2018-07-15T04:57:50.223Z,450.00
2018-07-15T04:58:50.217Z,495.00
2018-07-15T04:59:50.215Z,528.75
2018-07-15T05:00:50.211Z,556.88
2018-07-15T05:01:50.255Z,590.63
2018-07-15T05:02:50.214Z,618.75
2018-07-15T05:03:50.212Z,652.50
2018-07-15T05:04:50.209Z,686.25
2018-07-15T05:05:50.204Z,714.38
2018-07-15T05:06:50.203Z,748.13
2018-07-15T05:07:50.210Z,781.88
2018-07-15T05:08:50.206Z,798.75
2018-07-15T05:09:50.202Z,821.25
2018-07-15T05:10:50.202Z,843.75
2018-07-15T05:11:50.203Z,866.25
2018-07-15T05:12:50.204Z,888.75
2018-07-15T05:13:50.209Z,911.25
2018-07-15T05:14:50.213Z,933.75
2018-07-15T05:15:50.212Z,945.00
2018-07-15T05:16:50.214Z,961.88
2018-07-15T05:17:50.212Z,978.75
2018-07-15T05:18:50.213Z,995.63
2018-07-15T05:19:50.215Z,1012.50
2018-07-15T05:20:50.217Z,1035.00
2018-07-15T05:21:50.227Z,1051.88
2018-07-15T05:22:50.228Z,1068.75
2018-07-15T05:23:50.228Z,1091.25
2018-07-15T05:24:50.235Z,1102.50
2018-07-15T05:25:50.238Z,1119.38
2018-07-15T05:26:50.243Z,1136.25
2018-07-15T05:27:50.248Z,1153.13
2018-07-15T05:28:50.251Z,1170.00
2018-07-15T05:29:50.251Z,1181.25
2018-07-15T05:30:50.256Z,1192.50
2018-07-15T05:31:50.261Z,1209.38
2018-07-15T05:32:50.268Z,1220.63
2018-07-15T05:33:50.275Z,1237.50
2018-07-15T05:34:50.342Z,1248.75
2018-07-15T05:35:50.284Z,1265.63
2018-07-15T05:36:50.289Z,1276.88
2018-07-15T05:37:50.290Z,1293.75
2018-07-15T05:38:50.296Z,1310.63
2018-07-15T05:39:50.307Z,1321.88
2018-07-15T05:40:50.314Z,1333.13
2018-07-15T05:41:50.315Z,1338.75
2018-07-15T05:42:50.320Z,1355.63
2018-07-15T05:43:50.328Z,1366.88
2018-07-15T05:44:50.333Z,1378.13
2018-07-15T05:45:50.345Z,1389.38
2018-07-15T05:46:50.352Z,1400.63
2018-07-15T05:47:50.358Z,1406.25
2018-07-15T05:48:50.369Z,1417.50
2018-07-15T05:49:50.368Z,1428.75
2018-07-15T05:50:50.377Z,1440.00
2018-07-15T05:51:50.419Z,1451.25
2018-07-15T05:52:50.389Z,1468.13
2018-07-15T05:53:50.402Z,1485.00
2018-07-15T05:54:50.409Z,1485.00
2018-07-15T05:55:50.411Z,1501.88
2018-07-15T05:56:50.465Z,1513.13
2018-07-15T05:57:50.457Z,1513.13
2018-07-15T05:58:50.440Z,1524.38
2018-07-15T05:59:50.448Z,1530.00
2018-07-15T06:00:50.456Z,1541.25
2018-07-15T06:01:50.458Z,1563.75
2018-07-15T06:02:50.486Z,1563.75
2018-07-15T06:03:50.525Z,1575.00
2018-07-15T06:04:50.492Z,1586.25
2018-07-15T06:05:50.499Z,1597.50
2018-07-15T06:06:50.506Z,1603.13
2018-07-15T06:07:50.516Z,1608.75
2018-07-15T06:08:50.525Z,1608.75
2018-07-15T06:09:50.531Z,1620.00
2018-07-15T06:10:50.644Z,1631.25
2018-07-15T06:11:50.556Z,1642.50
2018-07-15T06:12:50.564Z,1648.13
2018-07-15T06:13:50.579Z,1665.00
2018-07-15T06:14:50.577Z,1676.25
2018-07-15T06:15:50.600Z,1676.25
2018-07-15T06:16:50.597Z,1681.88
2018-07-15T06:17:50.611Z,1693.13
2018-07-15T06:18:50.622Z,1715.63
2018-07-15T06:19:50.633Z,1715.63
2018-07-15T06:20:50.647Z,1726.88
2018-07-15T06:21:50.650Z,1721.25
2018-07-15T06:22:50.767Z,1738.13
2018-07-15T06:23:50.670Z,1738.13
2018-07-15T06:24:50.682Z,1749.38
2018-07-15T06:25:50.697Z,1760.63
2018-07-15T06:26:50.708Z,1766.25
2018-07-15T06:27:50.714Z,1777.50
2018-07-15T06:28:50.723Z,1783.13
2018-07-15T06:29:50.742Z,1794.38
2018-07-15T06:30:50.752Z,1794.38
2018-07-15T06:31:50.832Z,1805.63
2018-07-15T06:32:50.775Z,1811.25
2018-07-15T06:33:50.782Z,1822.50
2018-07-15T06:34:50.794Z,1822.50
2018-07-15T06:35:50.806Z,1845.00
2018-07-15T06:36:50.818Z,1839.38
2018-07-15T06:37:50.835Z,1850.63
2018-07-15T06:38:50.846Z,1856.25
2018-07-15T06:39:50.860Z,1861.88
2018-07-15T06:40:50.872Z,1873.13
2018-07-15T06:41:50.879Z,1878.75
2018-07-15T06:42:50.893Z,1878.75
2018-07-15T06:43:50.908Z,1890.00
2018-07-15T06:44:50.921Z,1895.63
2018-07-15T06:45:50.928Z,1906.88
2018-07-15T06:46:50.942Z,1912.50
2018-07-15T06:47:50.954Z,1912.50
2018-07-15T06:48:50.966Z,1918.13
2018-07-15T06:49:50.985Z,1923.75
2018-07-15T06:50:50.999Z,1935.00
2018-07-15T06:51:51.012Z,1935.00
2018-07-15T06:52:51.026Z,1951.88
2018-07-15T06:53:51.068Z,1951.88
2018-07-15T06:54:51.047Z,1957.50
2018-07-15T06:55:51.104Z,1963.13
2018-07-15T06:56:51.077Z,1974.38
2018-07-15T06:57:51.092Z,1985.63
2018-07-15T06:58:51.110Z,1991.25
2018-07-15T06:59:51.118Z,1991.25
2018-07-15T07:00:51.133Z,2002.50
2018-07-15T07:01:51.148Z,2013.75
2018-07-15T07:02:51.163Z,2025.00
2018-07-15T07:03:51.177Z,2030.63
2018-07-15T07:04:51.192Z,2041.88
2018-07-15T07:05:51.201Z,2041.88
2018-07-15T07:06:51.214Z,2053.13
2018-07-15T07:07:51.235Z,2064.38
2018-07-15T07:08:51.243Z,2075.63
2018-07-15T07:09:51.263Z,2081.25
2018-07-15T07:10:51.277Z,2092.50
2018-07-15T07:11:51.291Z,2098.13
2018-07-15T07:12:51.304Z,2103.75
2018-07-15T07:13:51.315Z,2115.00
2018-07-15T07:14:51.331Z,2126.25
2018-07-15T07:15:51.347Z,2131.88
2018-07-15T07:16:51.361Z,2137.50
2018-07-15T07:17:51.372Z,2148.75
2018-07-15T07:18:51.386Z,2160.00
2018-07-15T07:19:51.401Z,2171.25
2018-07-15T07:20:51.415Z,2176.88
2018-07-15T07:21:51.436Z,2165.63
2018-07-15T07:22:51.450Z,2182.50
2018-07-15T07:23:51.466Z,2210.63
2018-07-15T07:24:51.479Z,2233.13
2018-07-15T07:25:51.491Z,2261.25
2018-07-15T07:26:51.509Z,2283.75
2018-07-15T07:27:51.520Z,2306.25
2018-07-15T07:28:51.576Z,2351.25
2018-07-15T07:29:51.553Z,2379.38
2018-07-15T07:30:51.569Z,2413.13
2018-07-15T07:31:51.582Z,2458.13
2018-07-15T07:32:51.602Z,2542.50
2018-07-15T07:33:51.615Z,2643.75
2018-07-15T07:34:51.630Z,2750.63
2018-07-15T07:35:51.647Z,2818.13
2018-07-15T07:36:51.663Z,2970.00
2018-07-15T07:37:51.673Z,3318.75
2018-07-15T07:38:51.789Z,3836.25
2018-07-15T07:39:51.704Z,4331.25
2018-07-15T07:40:51.718Z,4635.00
2018-07-15T07:41:51.746Z,4359.38
2018-07-15T07:42:51.756Z,4140.00
2018-07-15T07:43:51.771Z,4162.50
2018-07-15T07:44:51.785Z,4230.00
2018-07-15T07:45:51.798Z,4348.13
2018-07-15T07:46:51.848Z,4336.88
2018-07-15T07:47:51.833Z,4055.63
2018-07-15T07:48:51.848Z,4078.13
2018-07-15T07:49:51.860Z,4066.88
2018-07-15T07:50:51.876Z,4280.63
2018-07-15T07:51:51.893Z,4533.75
2018-07-15T07:52:51.908Z,4623.75
2018-07-15T07:53:51.929Z,4736.25
2018-07-15T07:54:51.945Z,4882.50
2018-07-15T07:55:51.962Z,4854.38
2018-07-15T07:56:51.977Z,4815.00
2018-07-15T07:57:51.988Z,4893.75
2018-07-15T07:58:52.003Z,5034.38
2018-07-15T07:59:52.019Z,5068.13
2018-07-15T08:00:52.035Z,4601.25
2018-07-15T08:01:52.110Z,4623.75
2018-07-15T08:02:52.072Z,5186.25
2018-07-15T08:03:52.084Z,5681.25
2018-07-15T08:04:52.099Z,5214.38
2018-07-15T08:05:52.120Z,4955.63
2018-07-15T08:06:52.137Z,5310.00
2018-07-15T08:07:52.155Z,5709.38
2018-07-15T08:08:52.170Z,5715.00
2018-07-15T08:09:52.182Z,5518.13
2018-07-15T08:10:52.199Z,5214.38
2018-07-15T08:11:52.217Z,4950.00
2018-07-15T08:12:52.231Z,4950.00
2018-07-15T08:13:52.250Z,4978.13
2018-07-15T08:14:52.268Z,4601.25
2018-07-15T08:15:52.284Z,4618.13
2018-07-15T08:16:52.300Z,4573.13
2018-07-15T08:17:52.314Z,4376.25
2018-07-15T08:18:52.329Z,4252.50
2018-07-15T08:19:52.351Z,4128.75
2018-07-15T08:20:52.366Z,4438.13
2018-07-15T08:21:52.381Z,4550.63
2018-07-15T08:22:52.396Z,4449.38
2018-07-15T08:23:52.414Z,4117.50
2018-07-15T08:24:52.430Z,4005.00
2018-07-15T08:25:52.452Z,4426.88
2018-07-15T08:26:52.470Z,5214.38
2018-07-15T08:27:52.486Z,5197.50
2018-07-15T08:28:52.504Z,4359.38
2018-07-15T08:29:52.516Z,3903.75
2018-07-15T08:30:52.532Z,4033.13
2018-07-15T08:31:52.549Z,4241.25
2018-07-15T08:32:52.566Z,4185.00
2018-07-15T08:33:52.588Z,3909.38
2018-07-15T08:34:52.626Z,3903.75
2018-07-15T08:35:52.620Z,3999.38
2018-07-15T08:36:52.635Z,3903.75
2018-07-15T08:37:52.657Z,3954.38
2018-07-15T08:38:52.675Z,3948.75
2018-07-15T08:39:52.694Z,3898.13
2018-07-15T08:40:52.722Z,3774.38
2018-07-15T08:41:52.728Z,3751.88
2018-07-15T08:42:52.741Z,3678.75
2018-07-15T08:43:52.759Z,3594.38
2018-07-15T08:44:52.775Z,3808.13
2018-07-15T08:45:52.859Z,3937.50
2018-07-15T08:46:52.816Z,3802.50
2018-07-15T08:47:52.837Z,3740.63
2018-07-15T08:48:52.852Z,3825.00
2018-07-15T08:49:52.867Z,3808.13
2018-07-15T08:50:52.888Z,3712.50
2018-07-15T08:51:52.908Z,3684.38
2018-07-15T08:52:52.925Z,3712.50
2018-07-15T08:53:52.940Z,3661.88
2018-07-15T08:54:52.959Z,3583.13
2018-07-15T08:55:52.977Z,3555.00
2018-07-15T08:56:52.995Z,3723.75
2018-07-15T08:57:53.019Z,3768.75
2018-07-15T08:58:53.038Z,3605.63
2018-07-15T08:59:53.058Z,3538.13
2018-07-15T09:00:53.075Z,3645.00
2018-07-15T09:01:53.093Z,3937.50
2018-07-15T09:02:53.107Z,4449.38
2018-07-15T09:03:53.123Z,4398.75
2018-07-15T09:04:53.141Z,4207.50
2018-07-15T09:05:53.164Z,4196.25
2018-07-15T09:06:53.183Z,4353.75
2018-07-15T09:07:53.196Z,4623.75
2018-07-15T09:08:53.216Z,4916.25
2018-07-15T09:09:53.237Z,5130.00
2018-07-15T09:10:53.255Z,5146.88
2018-07-15T09:11:53.272Z,4770.00
2018-07-15T09:12:53.289Z,4066.88
2018-07-15T09:13:53.306Z,3628.13
2018-07-15T09:14:53.322Z,3481.88
2018-07-15T09:15:53.343Z,3380.63
2018-07-15T09:16:53.358Z,3352.50
2018-07-15T09:17:53.382Z,3313.13
2018-07-15T09:18:53.400Z,3290.63
2018-07-15T09:19:53.417Z,3296.25
2018-07-15T09:20:53.435Z,3296.25
2018-07-15T09:21:53.532Z,3307.50
2018-07-15T09:22:53.467Z,3335.63
2018-07-15T09:23:53.492Z,3380.63
2018-07-15T09:24:53.509Z,3425.63
2018-07-15T09:25:53.522Z,3465.00
2018-07-15T09:26:53.539Z,3470.63
2018-07-15T09:27:53.576Z,3526.88
2018-07-15T09:28:53.575Z,3571.88
2018-07-15T09:29:53.597Z,3577.50
2018-07-15T09:30:53.615Z,3622.50
2018-07-15T09:31:53.634Z,3633.75
2018-07-15T09:32:53.650Z,3639.38
2018-07-15T09:33:53.665Z,3729.38
2018-07-15T09:34:53.682Z,3723.75
2018-07-15T09:35:53.708Z,3757.50
2018-07-15T09:36:53.718Z,3757.50
2018-07-15T09:37:53.742Z,3774.38
2018-07-15T09:38:53.764Z,3774.38
2018-07-15T09:39:53.772Z,3808.13
2018-07-15T09:40:53.791Z,3830.63
2018-07-15T09:41:53.813Z,3841.88
2018-07-15T09:42:53.832Z,3847.50
2018-07-15T09:43:53.850Z,3864.38
2018-07-15T09:44:53.869Z,3864.38
2018-07-15T09:45:53.882Z,3864.38
2018-07-15T09:46:53.899Z,3858.75
2018-07-15T09:47:53.917Z,3847.50
2018-07-15T09:48:53.935Z,3858.75
2018-07-15T09:49:53.960Z,3830.63
2018-07-15T09:50:53.978Z,3813.75
2018-07-15T09:51:53.999Z,3836.25
2018-07-15T09:52:54.016Z,3768.75
2018-07-15T09:53:54.030Z,3723.75
2018-07-15T09:54:54.050Z,3706.88
2018-07-15T09:55:54.074Z,3650.63
2018-07-15T09:56:54.092Z,3616.88
2018-07-15T09:57:54.111Z,3577.50
2018-07-15T09:58:54.127Z,3538.13
2018-07-15T09:59:54.147Z,3504.38
2018-07-15T10:00:54.162Z,3465.00
2018-07-15T10:01:54.185Z,3436.88
2018-07-15T10:02:54.204Z,3386.25
2018-07-15T10:03:54.226Z,3341.25
2018-07-15T10:04:54.242Z,3313.13
2018-07-15T10:05:54.256Z,3268.13
2018-07-15T10:06:54.274Z,3206.25
2018-07-15T10:07:54.293Z,3172.50
2018-07-15T10:08:54.310Z,3105.00
2018-07-15T10:09:54.334Z,3065.63
2018-07-15T10:10:54.353Z,3015.00
2018-07-15T10:11:54.369Z,2975.63
2018-07-15T10:12:54.387Z,2947.50
2018-07-15T10:13:54.409Z,2919.38
2018-07-15T10:14:54.431Z,2851.88
2018-07-15T10:15:54.450Z,2790.00
2018-07-15T10:16:54.469Z,2745.00
2018-07-15T10:17:54.484Z,2716.88
2018-07-15T10:18:54.534Z,2711.25
2018-07-15T10:19:54.522Z,2694.38
2018-07-15T10:20:54.537Z,2677.50
2018-07-15T10:21:54.561Z,2694.38
2018-07-15T10:22:54.578Z,2688.75
2018-07-15T10:23:54.597Z,2722.50
2018-07-15T10:24:54.615Z,2761.88
2018-07-15T10:25:54.628Z,2767.50
2018-07-15T10:26:54.647Z,2930.63
2018-07-15T10:27:54.670Z,3948.75
2018-07-15T10:28:54.688Z,5495.63
2018-07-15T10:29:54.701Z,5298.75
2018-07-15T10:30:54.721Z,4944.38
2018-07-15T10:31:54.741Z,5433.75
2018-07-15T10:32:54.755Z,5580.00
2018-07-15T10:33:54.780Z,5681.25
2018-07-15T10:34:54.798Z,5715.00
2018-07-15T10:35:54.818Z,5433.75
2018-07-15T10:36:54.835Z,5304.38
2018-07-15T10:37:54.847Z,5388.75
2018-07-15T10:38:54.881Z,5540.63
2018-07-15T10:39:54.886Z,5079.38
2018-07-15T10:40:54.902Z,4725.00
2018-07-15T10:41:54.929Z,5208.75
2018-07-15T10:42:54.943Z,5276.25
2018-07-15T10:43:54.958Z,5096.25
2018-07-15T10:44:54.976Z,5028.75
2018-07-15T10:45:55.002Z,5135.63
2018-07-15T10:46:55.016Z,5191.88
2018-07-15T10:47:55.037Z,5383.13
2018-07-15T10:48:55.054Z,5506.88
2018-07-15T10:49:55.067Z,5580.00
2018-07-15T10:50:55.089Z,5405.63
2018-07-15T10:51:55.104Z,5490.00
2018-07-15T10:52:55.148Z,5681.25
2018-07-15T10:53:55.146Z,5484.38
2018-07-15T10:54:55.167Z,5653.13
2018-07-15T10:55:55.183Z,5810.63
2018-07-15T10:56:55.203Z,5630.63
2018-07-15T10:57:55.215Z,5608.13
2018-07-15T10:58:55.232Z,5546.25
2018-07-15T10:59:55.257Z,5186.25
2018-07-15T11:00:55.276Z,5045.63
2018-07-15T11:01:55.289Z,5422.50
2018-07-15T11:02:55.308Z,5596.88
2018-07-15T11:03:55.326Z,5563.13
2018-07-15T11:04:55.344Z,5315.63
2018-07-15T11:05:55.368Z,5985.00
2018-07-15T11:06:55.385Z,6463.13
2018-07-15T11:07:55.404Z,5866.88
2018-07-15T11:08:55.421Z,5580.00
2018-07-15T11:09:55.434Z,5737.50
2018-07-15T11:10:55.454Z,5883.75
2018-07-15T11:11:55.473Z,6198.75
2018-07-15T11:12:55.489Z,5574.38
2018-07-15T11:13:55.514Z,4893.75
2018-07-15T11:14:55.532Z,5557.50
2018-07-15T11:15:55.546Z,5962.50
2018-07-15T11:16:55.562Z,5720.63
2018-07-15T11:17:55.591Z,5821.88
2018-07-15T11:18:55.604Z,6390.00
2018-07-15T11:19:55.621Z,6429.38
2018-07-15T11:20:55.638Z,5985.00
2018-07-15T11:21:55.653Z,4725.00
2018-07-15T11:22:55.674Z,4095.00
2018-07-15T11:23:55.689Z,4831.88
2018-07-15T11:24:55.715Z,6046.88
2018-07-15T11:25:55.726Z,6300.00
2018-07-15T11:26:55.744Z,5028.75
2018-07-15T11:27:55.762Z,1918.13
2018-07-15T11:28:55.777Z,556.88
2018-07-15T11:29:55.789Z,421.88
2018-07-15T11:30:55.881Z,405.00
2018-07-15T11:31:55.826Z,399.38
2018-07-15T11:32:55.840Z,388.13
2018-07-15T11:33:55.850Z,382.50
2018-07-15T11:34:55.865Z,382.50
2018-07-15T11:35:55.878Z,376.88
2018-07-15T11:36:55.891Z,376.88
2018-07-15T11:37:55.909Z,376.88
2018-07-15T11:38:55.977Z,376.88
2018-07-15T11:39:55.936Z,376.88
2018-07-15T11:40:55.951Z,376.88
2018-07-15T11:41:55.956Z,376.88
2018-07-15T11:42:55.968Z,376.88
2018-07-15T11:43:55.977Z,371.25
2018-07-15T11:44:55.989Z,371.25
2018-07-15T11:45:56.011Z,371.25
2018-07-15T11:46:56.013Z,371.25
2018-07-15T11:47:56.020Z,365.63
2018-07-15T11:48:56.028Z,365.63
2018-07-15T11:49:56.043Z,360.00
2018-07-15T11:50:56.054Z,360.00
2018-07-15T11:51:56.062Z,360.00
2018-07-15T11:52:56.070Z,365.63
2018-07-15T11:53:56.075Z,354.38
2018-07-15T11:54:56.094Z,354.38
2018-07-15T11:55:56.092Z,354.38
2018-07-15T11:56:56.100Z,354.38
2018-07-15T11:57:56.114Z,354.38
2018-07-15T11:58:56.121Z,354.38
2018-07-15T11:59:56.131Z,354.38
2018-07-15T12:00:56.139Z,354.38
2018-07-15T12:01:56.180Z,348.75
2018-07-15T12:02:56.150Z,348.75
2018-07-15T12:03:56.162Z,343.13
2018-07-15T12:04:56.168Z,343.13
2018-07-15T12:05:56.171Z,343.13
2018-07-15T12:06:56.181Z,343.13
2018-07-15T12:07:56.187Z,337.50
2018-07-15T12:08:56.193Z,343.13
2018-07-15T12:09:56.205Z,337.50
2018-07-15T12:10:56.236Z,331.88
2018-07-15T12:11:56.216Z,337.50
2018-07-15T12:12:56.224Z,331.88
2018-07-15T12:13:56.234Z,326.25
2018-07-15T12:14:56.241Z,326.25
2018-07-15T12:15:56.247Z,320.63
2018-07-15T12:16:56.254Z,320.63
2018-07-15T12:17:56.255Z,320.63
2018-07-15T12:18:56.262Z,320.63
2018-07-15T12:19:56.274Z,320.63
2018-07-15T12:20:56.279Z,320.63
2018-07-15T12:21:56.281Z,315.00
2018-07-15T12:22:56.287Z,309.38
2018-07-15T12:23:56.295Z,309.38
2018-07-15T12:24:56.302Z,309.38
2018-07-15T12:25:56.310Z,309.38
2018-07-15T12:26:56.317Z,303.75
2018-07-15T12:27:56.324Z,303.75
2018-07-15T12:28:56.329Z,303.75
2018-07-15T12:29:56.335Z,303.75
2018-07-15T12:30:56.340Z,303.75
2018-07-15T12:31:56.343Z,298.13